sensor_id;sensor_type;location;lat;lon;timestamp;pressure;altitude;pressure_sealevel;temperature
63158;BMP280;49381;49.338;8.794;2023-02-11T00:01:32;102444.03;;;1.06
63158;BMP280;49381;49.338;8.794;2023-02-11T00:03:33;102438.94;;;1.05
63158;BMP280;49381;49.338;8.794;2023-02-11T00:05:34;102440.75;;;1.07
63158;BMP280;49381;49.338;8.794;2023-02-11T00:07:35;102430.66;;;1.06
63158;BMP280;49381;49.338;8.794;2023-02-11T00:09:36;102434.81;;;1.05
63158;BMP280;49381;49.338;8.794;2023-02-11T00:11:37;102435.56;;;1.04
63158;BMP280;49381;49.338;8.794;2023-02-11T00:13:37;102430.16;;;1.10
63158;BMP280;49381;49.338;8.794;2023-02-11T00:15:37;102438.72;;;1.13
63158;BMP280;49381;49.338;8.794;2023-02-11T00:17:37;102439.59;;;1.14
63158;BMP280;49381;49.338;8.794;2023-02-11T00:19:38;102439.72;;;1.15
63158;BMP280;49381;49.338;8.794;2023-02-11T00:21:39;102434.50;;;1.12
63158;BMP280;49381;49.338;8.794;2023-02-11T00:23:40;102438.63;;;1.12
63158;BMP280;49381;49.338;8.794;2023-02-11T00:25:42;102423.38;;;1.09
63158;BMP280;49381;49.338;8.794;2023-02-11T00:27:42;102424.50;;;1.12
63158;BMP280;49381;49.338;8.794;2023-02-11T00:29:43;102424.75;;;1.15
63158;BMP280;49381;49.338;8.794;2023-02-11T00:31:43;102424.75;;;1.15
63158;BMP280;49381;49.338;8.794;2023-02-11T00:33:44;102419.50;;;1.12
63158;BMP280;49381;49.338;8.794;2023-02-11T00:35:45;102421.13;;;1.12
63158;BMP280;49381;49.338;8.794;2023-02-11T00:37:46;102416.03;;;1.10
63158;BMP280;49381;49.338;8.794;2023-02-11T00:39:47;102418.53;;;1.10
63158;BMP280;49381;49.338;8.794;2023-02-11T00:41:47;102414.75;;;1.15
63158;BMP280;49381;49.338;8.794;2023-02-11T00:43:48;102415.38;;;1.13
63158;BMP280;49381;49.338;8.794;2023-02-11T00:45:48;102410.78;;;1.07
63158;BMP280;49381;49.338;8.794;2023-02-11T00:47:48;102419.25;;;1.09
63158;BMP280;49381;49.338;8.794;2023-02-11T00:49:49;102416.13;;;1.12
63158;BMP280;49381;49.338;8.794;2023-02-11T00:51:49;102417.97;;;1.14
63158;BMP280;49381;49.338;8.794;2023-02-11T00:53:51;102417.09;;;1.14
63158;BMP280;49381;49.338;8.794;2023-02-11T00:55:51;102410.97;;;1.20
63158;BMP280;49381;49.338;8.794;2023-02-11T00:57:51;102405.97;;;1.20
63158;BMP280;49381;49.338;8.794;2023-02-11T00:59:52;102410.81;;;1.19
63158;BMP280;49381;49.338;8.794;2023-02-11T01:01:52;102413.22;;;1.17
63158;BMP280;49381;49.338;8.794;2023-02-11T01:03:52;102405.84;;;1.19
63158;BMP280;49381;49.338;8.794;2023-02-11T01:05:53;102408.66;;;1.23
63158;BMP280;49381;49.338;8.794;2023-02-11T01:07:54;102405.41;;;1.24
63158;BMP280;49381;49.338;8.794;2023-02-11T01:09:55;102407.81;;;1.23
63158;BMP280;49381;49.338;8.794;2023-02-11T01:11:56;102409.34;;;1.21
63158;BMP280;49381;49.338;8.794;2023-02-11T01:13:56;102398.47;;;1.20
63158;BMP280;49381;49.338;8.794;2023-02-11T01:15:56;102409.97;;;1.18
63158;BMP280;49381;49.338;8.794;2023-02-11T01:17:57;102398.69;;;1.23
63158;BMP280;49381;49.338;8.794;2023-02-11T01:19:57;102395.66;;;1.27
63158;BMP280;49381;49.338;8.794;2023-02-11T01:21:58;102398.69;;;1.23
63158;BMP280;49381;49.338;8.794;2023-02-11T01:23:58;102402.03;;;1.24
63158;BMP280;49381;49.338;8.794;2023-02-11T01:26:00;102403.06;;;1.25
63158;BMP280;49381;49.338;8.794;2023-02-11T01:28:00;102415.41;;;1.24
63158;BMP280;49381;49.338;8.794;2023-02-11T01:30:00;102397.91;;;1.24
63158;BMP280;49381;49.338;8.794;2023-02-11T01:32:01;102401.53;;;1.27
63158;BMP280;49381;49.338;8.794;2023-02-11T01:34:01;102406.53;;;1.27
63158;BMP280;49381;49.338;8.794;2023-02-11T01:36:03;102409.38;;;1.32
63158;BMP280;49381;49.338;8.794;2023-02-11T01:38:05;102405.41;;;1.24
63158;BMP280;49381;49.338;8.794;2023-02-11T01:40:10;102401.84;;;1.21
63158;BMP280;49381;49.338;8.794;2023-02-11T01:42:15;102406.53;;;1.27
63158;BMP280;49381;49.338;8.794;2023-02-11T01:44:23;102400.91;;;1.30
63158;BMP280;49381;49.338;8.794;2023-02-11T01:46:30;102395.13;;;1.31
63158;BMP280;49381;49.338;8.794;2023-02-11T01:48:33;102394.38;;;1.32
63158;BMP280;49381;49.338;8.794;2023-02-11T01:50:35;102402.63;;;1.31
63158;BMP280;49381;49.338;8.794;2023-02-11T01:52:38;102405.88;;;1.30
63158;BMP280;49381;49.338;8.794;2023-02-11T01:54:41;102406.41;;;1.26
63158;BMP280;49381;49.338;8.794;2023-02-11T01:56:47;102401.78;;;1.09
63158;BMP280;49381;49.338;8.794;2023-02-11T01:58:50;102394.94;;;1.07
63158;BMP280;49381;49.338;8.794;2023-02-11T02:00:52;102399.53;;;1.12
63158;BMP280;49381;49.338;8.794;2023-02-11T02:02:57;102397.25;;;1.15
63158;BMP280;49381;49.338;8.794;2023-02-11T02:04:59;102383.00;;;1.14
63158;BMP280;49381;49.338;8.794;2023-02-11T02:07:05;102364.78;;;1.15
63158;BMP280;49381;49.338;8.794;2023-02-11T02:09:10;102366.94;;;1.11
63158;BMP280;49381;49.338;8.794;2023-02-11T02:11:15;102371.41;;;1.15
63158;BMP280;49381;49.338;8.794;2023-02-11T02:13:15;102368.34;;;1.19
63158;BMP280;49381;49.338;8.794;2023-02-11T02:15:26;102360.75;;;1.17
63158;BMP280;49381;49.338;8.794;2023-02-11T02:17:32;102356.28;;;1.13
63158;BMP280;49381;49.338;8.794;2023-02-11T02:20:01;102353.22;;;1.06
63158;BMP280;49381;49.338;8.794;2023-02-11T02:22:38;102343.00;;;1.03
63158;BMP280;49381;49.338;8.794;2023-02-11T02:24:58;102338.00;;;1.03
63158;BMP280;49381;49.338;8.794;2023-02-11T02:27:14;102345.50;;;1.03
63158;BMP280;49381;49.338;8.794;2023-02-11T02:30:02;102341.09;;;1.10
63158;BMP280;49381;49.338;8.794;2023-02-11T02:34:41;102329.34;;;1.09
63158;BMP280;49381;49.338;8.794;2023-02-11T02:36:48;102324.34;;;1.09
63158;BMP280;49381;49.338;8.794;2023-02-11T02:38:54;102325.00;;;1.07
63158;BMP280;49381;49.338;8.794;2023-02-11T02:40:59;102322.25;;;1.04
63158;BMP280;49381;49.338;8.794;2023-02-11T02:43:02;102327.91;;;1.01
63158;BMP280;49381;49.338;8.794;2023-02-11T02:45:03;102311.31;;;1.13
63158;BMP280;49381;49.338;8.794;2023-02-11T02:47:05;102308.28;;;1.17
63158;BMP280;49381;49.338;8.794;2023-02-11T02:49:11;102302.66;;;1.20
63158;BMP280;49381;49.338;8.794;2023-02-11T02:53:54;102295.72;;;1.27
63158;BMP280;49381;49.338;8.794;2023-02-11T02:56:01;102284.63;;;1.24
63158;BMP280;49381;49.338;8.794;2023-02-11T03:00:35;102302.00;;;1.22
63158;BMP280;49381;49.338;8.794;2023-02-11T03:02:42;102292.25;;;1.25
63158;BMP280;49381;49.338;8.794;2023-02-11T03:04:51;102297.97;;;1.24
63158;BMP280;49381;49.338;8.794;2023-02-11T03:06:57;102305.94;;;1.30
63158;BMP280;49381;49.338;8.794;2023-02-11T03:09:05;102309.63;;;1.35
63158;BMP280;49381;49.338;8.794;2023-02-11T03:11:08;102319.22;;;1.40
63158;BMP280;49381;49.338;8.794;2023-02-11T03:13:08;102312.91;;;1.45
63158;BMP280;49381;49.338;8.794;2023-02-11T03:15:10;102316.56;;;1.39
63158;BMP280;49381;49.338;8.794;2023-02-11T03:17:13;102306.13;;;1.33
63158;BMP280;49381;49.338;8.794;2023-02-11T03:19:17;102299.31;;;1.30
63158;BMP280;49381;49.338;8.794;2023-02-11T03:21:20;102303.97;;;1.37
63158;BMP280;49381;49.338;8.794;2023-02-11T03:23:26;102306.81;;;1.42
63158;BMP280;49381;49.338;8.794;2023-02-11T03:25:31;102311.28;;;1.46
63158;BMP280;49381;49.338;8.794;2023-02-11T03:27:38;102319.75;;;1.48
63158;BMP280;49381;49.338;8.794;2023-02-11T03:29:42;102315.06;;;1.52
63158;BMP280;49381;49.338;8.794;2023-02-11T03:31:53;102307.47;;;1.50
63158;BMP280;49381;49.338;8.794;2023-02-11T03:33:59;102307.69;;;1.53
63158;BMP280;49381;49.338;8.794;2023-02-11T03:36:03;102307.47;;;1.50
63158;BMP280;49381;49.338;8.794;2023-02-11T03:38:10;102313.53;;;1.54
63158;BMP280;49381;49.338;8.794;2023-02-11T03:40:17;102311.19;;;1.55
63158;BMP280;49381;49.338;8.794;2023-02-11T03:42:18;102305.50;;;1.58
63158;BMP280;49381;49.338;8.794;2023-02-11T03:44:19;102307.25;;;1.59
63158;BMP280;49381;49.338;8.794;2023-02-11T03:46:24;102312.72;;;1.65
63158;BMP280;49381;49.338;8.794;2023-02-11T03:48:29;102307.13;;;1.69
63158;BMP280;49381;49.338;8.794;2023-02-11T03:50:32;102305.72;;;1.72
63158;BMP280;49381;49.338;8.794;2023-02-11T03:52:34;102303.31;;;1.74
63158;BMP280;49381;49.338;8.794;2023-02-11T03:54:38;102290.63;;;1.71
63158;BMP280;49381;49.338;8.794;2023-02-11T03:56:43;102283.78;;;1.68
63158;BMP280;49381;49.338;8.794;2023-02-11T03:58:47;102278.34;;;1.62
63158;BMP280;49381;49.338;8.794;2023-02-11T04:00:47;102284.44;;;1.54
63158;BMP280;49381;49.338;8.794;2023-02-11T04:02:47;102278.69;;;1.55
63158;BMP280;49381;49.338;8.794;2023-02-11T04:04:48;102284.44;;;1.54
63158;BMP280;49381;49.338;8.794;2023-02-11T04:06:48;102282.25;;;1.59
63158;BMP280;49381;49.338;8.794;2023-02-11T04:08:48;102280.06;;;1.63
63158;BMP280;49381;49.338;8.794;2023-02-11T04:10:50;102287.03;;;1.67
63158;BMP280;49381;49.338;8.794;2023-02-11T04:12:50;102280.31;;;1.66
63158;BMP280;49381;49.338;8.794;2023-02-11T04:14:51;102275.75;;;1.61
63158;BMP280;49381;49.338;8.794;2023-02-11T04:16:51;102271.84;;;1.64
63158;BMP280;49381;49.338;8.794;2023-02-11T04:18:51;102269.09;;;1.61
63158;BMP280;49381;49.338;8.794;2023-02-11T04:20:52;102273.16;;;1.59
63158;BMP280;49381;49.338;8.794;2023-02-11T04:22:52;102272.91;;;1.56
63158;BMP280;49381;49.338;8.794;2023-02-11T04:24:52;102278.88;;;1.58
63158;BMP280;49381;49.338;8.794;2023-02-11T04:26:54;102285.66;;;1.59
63158;BMP280;49381;49.338;8.794;2023-02-11T04:28:55;102282.03;;;1.67
63158;BMP280;49381;49.338;8.794;2023-02-11T04:30:55;102280.63;;;1.71
63158;BMP280;49381;49.338;8.794;2023-02-11T04:32:56;102285.72;;;1.72
63158;BMP280;49381;49.338;8.794;2023-02-11T04:34:57;102275.72;;;1.72
63158;BMP280;49381;49.338;8.794;2023-02-11T04:36:57;102272.59;;;1.75
63158;BMP280;49381;49.338;8.794;2023-02-11T04:38:57;102277.91;;;1.79
63158;BMP280;49381;49.338;8.794;2023-02-11T04:40:58;102261.38;;;1.81
63158;BMP280;49381;49.338;8.794;2023-02-11T04:42:59;102253.97;;;1.82
63158;BMP280;49381;49.338;8.794;2023-02-11T04:44:59;102246.56;;;1.84
63158;BMP280;49381;49.338;8.794;2023-02-11T04:47:00;102259.28;;;1.87
63158;BMP280;49381;49.338;8.794;2023-02-11T04:49:00;102247.00;;;1.90
63158;BMP280;49381;49.338;8.794;2023-02-11T04:51:01;102237.00;;;1.90
63158;BMP280;49381;49.338;8.794;2023-02-11T04:53:01;102234.69;;;1.93
63158;BMP280;49381;49.338;8.794;2023-02-11T04:55:02;102228.19;;;1.95
63158;BMP280;49381;49.338;8.794;2023-02-11T04:57:03;102224.69;;;1.93
63158;BMP280;49381;49.338;8.794;2023-02-11T04:59:05;102229.38;;;2.00
63158;BMP280;49381;49.338;8.794;2023-02-11T05:01:06;102219.56;;;2.02
63158;BMP280;49381;49.338;8.794;2023-02-11T05:03:06;102224.78;;;2.05
63158;BMP280;49381;49.338;8.794;2023-02-11T05:05:06;102233.16;;;2.06
63158;BMP280;49381;49.338;8.794;2023-02-11T05:07:07;102234.78;;;2.05
63158;BMP280;49381;49.338;8.794;2023-02-11T05:09:09;102245.88;;;2.09
63158;BMP280;49381;49.338;8.794;2023-02-11T05:11:14;102251.19;;;2.13
63158;BMP280;49381;49.338;8.794;2023-02-11T05:13:15;102245.88;;;2.09
63158;BMP280;49381;49.338;8.794;2023-02-11T05:15:16;102256.00;;;2.10
63158;BMP280;49381;49.338;8.794;2023-02-11T05:17:17;102255.44;;;2.14
63158;BMP280;49381;49.338;8.794;2023-02-11T05:19:17;102268.69;;;2.13
63158;BMP280;49381;49.338;8.794;2023-02-11T05:21:18;102272.81;;;2.13
63158;BMP280;49381;49.338;8.794;2023-02-11T05:23:18;102275.47;;;2.14
63158;BMP280;49381;49.338;8.794;2023-02-11T05:25:19;102270.47;;;2.14
63158;BMP280;49381;49.338;8.794;2023-02-11T05:27:19;102276.50;;;2.18
63158;BMP280;49381;49.338;8.794;2023-02-11T05:29:19;102280.56;;;2.16
63158;BMP280;49381;49.338;8.794;2023-02-11T05:31:21;102284.25;;;2.21
63158;BMP280;49381;49.338;8.794;2023-02-11T05:33:22;102279.44;;;2.24
63158;BMP280;49381;49.338;8.794;2023-02-11T05:35:22;102287.84;;;2.24
63158;BMP280;49381;49.338;8.794;2023-02-11T05:37:23;102283.69;;;2.25
63158;BMP280;49381;49.338;8.794;2023-02-11T05:39:23;102284.34;;;2.22
63158;BMP280;49381;49.338;8.794;2023-02-11T05:41:23;102276.50;;;2.18
63158;BMP280;49381;49.338;8.794;2023-02-11T05:43:24;102276.50;;;2.18
63158;BMP280;49381;49.338;8.794;2023-02-11T05:45:24;102268.06;;;2.16
63158;BMP280;49381;49.338;8.794;2023-02-11T05:47:26;102245.13;;;2.10
63158;BMP280;49381;49.338;8.794;2023-02-11T05:49:26;102246.06;;;2.12
63158;BMP280;49381;49.338;8.794;2023-02-11T05:51:26;102231.06;;;2.12
63158;BMP280;49381;49.338;8.794;2023-02-11T05:55:27;102243.06;;;2.04
63158;BMP280;49381;49.338;8.794;2023-02-11T05:57:27;102244.56;;;2.02
63158;BMP280;49381;49.338;8.794;2023-02-11T05:59:27;102252.06;;;2.02
63158;BMP280;49381;49.338;8.794;2023-02-11T06:01:28;102258.72;;;2.02
63158;BMP280;49381;49.338;8.794;2023-02-11T06:03:30;102262.63;;;1.99
63158;BMP280;49381;49.338;8.794;2023-02-11T06:05:31;102261.31;;;2.03
63158;BMP280;49381;49.338;8.794;2023-02-11T06:07:31;102253.06;;;2.04
63158;BMP280;49381;49.338;8.794;2023-02-11T06:09:32;102249.81;;;2.05
63158;BMP280;49381;49.338;8.794;2023-02-11T06:11:32;102254.03;;;2.06
63158;BMP280;49381;49.338;8.794;2023-02-11T06:13:32;102251.31;;;2.03
63158;BMP280;49381;49.338;8.794;2023-02-11T06:15:36;102244.91;;;2.07
63158;BMP280;49381;49.338;8.794;2023-02-11T06:17:36;102238.94;;;2.05
63158;BMP280;49381;49.338;8.794;2023-02-11T06:19:38;102247.50;;;2.08
63158;BMP280;49381;49.338;8.794;2023-02-11T06:21:38;102229.97;;;2.08
63158;BMP280;49381;49.338;8.794;2023-02-11T06:23:39;102235.97;;;2.10
63158;BMP280;49381;49.338;8.794;2023-02-11T06:25:39;102240.44;;;2.14
63158;BMP280;49381;49.338;8.794;2023-02-11T06:27:40;102237.81;;;2.13
63158;BMP280;49381;49.338;8.794;2023-02-11T06:29:40;102230.41;;;2.14
63158;BMP280;49381;49.338;8.794;2023-02-11T06:31:40;102233.88;;;2.16
63158;BMP280;49381;49.338;8.794;2023-02-11T06:33:41;102234.66;;;2.15
63158;BMP280;49381;49.338;8.794;2023-02-11T06:35:43;102236.31;;;2.03
63158;BMP280;49381;49.338;8.794;2023-02-11T06:37:43;102238.47;;;2.10
63158;BMP280;49381;49.338;8.794;2023-02-11T06:39:44;102238.13;;;2.17
63158;BMP280;49381;49.338;8.794;2023-02-11T06:41:44;102238.13;;;2.17
63158;BMP280;49381;49.338;8.794;2023-02-11T06:43:45;102245.84;;;2.20
63158;BMP280;49381;49.338;8.794;2023-02-11T06:45:52;102246.91;;;2.24
63158;BMP280;49381;49.338;8.794;2023-02-11T06:47:53;102262.81;;;2.24
63158;BMP280;49381;49.338;8.794;2023-02-11T06:49:53;102262.81;;;2.24
63158;BMP280;49381;49.338;8.794;2023-02-11T06:51:59;102255.19;;;2.23
63158;BMP280;49381;49.338;8.794;2023-02-11T06:53:59;102269.75;;;2.28
63158;BMP280;49381;49.338;8.794;2023-02-11T06:56:04;102269.75;;;2.28
63158;BMP280;49381;49.338;8.794;2023-02-11T06:58:06;102262.44;;;2.31
63158;BMP280;49381;49.338;8.794;2023-02-11T07:00:07;102261.28;;;2.26
63158;BMP280;49381;49.338;8.794;2023-02-11T07:02:10;102268.56;;;2.23
63158;BMP280;49381;49.338;8.794;2023-02-11T07:04:12;102262.03;;;2.25
63158;BMP280;49381;49.338;8.794;2023-02-11T07:06:15;102266.81;;;2.22
63158;BMP280;49381;49.338;8.794;2023-02-11T07:08:17;102279.16;;;2.19
63158;BMP280;49381;49.338;8.794;2023-02-11T07:10:18;102271.06;;;2.23
63158;BMP280;49381;49.338;8.794;2023-02-11T07:12:18;102268.56;;;2.23
63158;BMP280;49381;49.338;8.794;2023-02-11T07:14:18;102267.59;;;2.21
63158;BMP280;49381;49.338;8.794;2023-02-11T07:16:19;102259.31;;;2.22
63158;BMP280;49381;49.338;8.794;2023-02-11T07:18:20;102260.19;;;2.23
63158;BMP280;49381;49.338;8.794;2023-02-11T07:20:22;102254.31;;;2.22
63158;BMP280;49381;49.338;8.794;2023-02-11T07:22:22;102255.84;;;2.20
63158;BMP280;49381;49.338;8.794;2023-02-11T07:24:25;102253.34;;;2.20
63158;BMP280;49381;49.338;8.794;2023-02-11T07:26:25;102256.19;;;2.13
63158;BMP280;49381;49.338;8.794;2023-02-11T07:28:26;102266.31;;;2.15
63158;BMP280;49381;49.338;8.794;2023-02-11T07:30:26;102265.44;;;2.14
63158;BMP280;49381;49.338;8.794;2023-02-11T07:32:26;102263.22;;;2.19
63158;BMP280;49381;49.338;8.794;2023-02-11T07:34:27;102263.69;;;2.13
63158;BMP280;49381;49.338;8.794;2023-02-11T07:36:29;102259.69;;;2.15
63158;BMP280;49381;49.338;8.794;2023-02-11T07:38:30;102261.00;;;2.10
63158;BMP280;49381;49.338;8.794;2023-02-11T07:40:32;102263.13;;;2.17
63158;BMP280;49381;49.338;8.794;2023-02-11T07:42:33;102253.03;;;2.16
63158;BMP280;49381;49.338;8.794;2023-02-11T07:44:33;102257.59;;;2.21
63158;BMP280;49381;49.338;8.794;2023-02-11T07:46:35;102253.91;;;2.16
63158;BMP280;49381;49.338;8.794;2023-02-11T07:48:36;102250.00;;;2.20
63158;BMP280;49381;49.338;8.794;2023-02-11T07:50:37;102252.59;;;2.21
63158;BMP280;49381;49.338;8.794;2023-02-11T07:52:37;102251.56;;;2.30
63158;BMP280;49381;49.338;8.794;2023-02-11T07:54:37;102247.56;;;2.21
63158;BMP280;49381;49.338;8.794;2023-02-11T07:56:40;102244.56;;;2.02
63158;BMP280;49381;49.338;8.794;2023-02-11T07:58:40;102249.72;;;2.28
63158;BMP280;49381;49.338;8.794;2023-02-11T08:00:41;102247.94;;;2.38
63158;BMP280;49381;49.338;8.794;2023-02-11T08:02:42;102243.84;;;2.39
63158;BMP280;49381;49.338;8.794;2023-02-11T08:04:44;102238.81;;;2.39
63158;BMP280;49381;49.338;8.794;2023-02-11T08:06:45;102242.53;;;2.32
63158;BMP280;49381;49.338;8.794;2023-02-11T08:08:45;102242.28;;;2.41
63158;BMP280;49381;49.338;8.794;2023-02-11T08:10:49;102248.22;;;2.54
63158;BMP280;49381;49.338;8.794;2023-02-11T08:12:51;102246.78;;;2.57
63158;BMP280;49381;49.338;8.794;2023-02-11T08:14:53;102253.16;;;2.65
63158;BMP280;49381;49.338;8.794;2023-02-11T08:16:53;102255.47;;;2.62
63158;BMP280;49381;49.338;8.794;2023-02-11T08:18:56;102249.03;;;2.66
63158;BMP280;49381;49.338;8.794;2023-02-11T08:21:02;102246.75;;;2.69
63158;BMP280;49381;49.338;8.794;2023-02-11T08:23:04;102254.75;;;2.76
63158;BMP280;49381;49.338;8.794;2023-02-11T08:25:07;102256.22;;;2.85
63158;BMP280;49381;49.338;8.794;2023-02-11T08:27:07;102250.94;;;2.94
63158;BMP280;49381;49.338;8.794;2023-02-11T08:29:11;102251.34;;;3.00
63158;BMP280;49381;49.338;8.794;2023-02-11T08:31:13;102251.75;;;3.05
63158;BMP280;49381;49.338;8.794;2023-02-11T08:33:14;102253.00;;;3.12
63158;BMP280;49381;49.338;8.794;2023-02-11T08:35:14;102260.16;;;3.19
63158;BMP280;49381;49.338;8.794;2023-02-11T08:37:17;102266.34;;;3.24
63158;BMP280;49381;49.338;8.794;2023-02-11T08:41:38;102256.59;;;3.41
63158;BMP280;49381;49.338;8.794;2023-02-11T08:43:39;102256.31;;;3.49
63158;BMP280;49381;49.338;8.794;2023-02-11T08:45:41;102259.22;;;3.55
63158;BMP280;49381;49.338;8.794;2023-02-11T08:47:41;102253.91;;;3.63
63158;BMP280;49381;49.338;8.794;2023-02-11T08:49:41;102260.09;;;3.68
63158;BMP280;49381;49.338;8.794;2023-02-11T08:51:42;102276.09;;;3.70
63158;BMP280;49381;49.338;8.794;2023-02-11T08:53:44;102273.97;;;3.76
63158;BMP280;49381;49.338;8.794;2023-02-11T08:55:47;102271.81;;;3.82
63158;BMP280;49381;49.338;8.794;2023-02-11T08:57:50;102269.72;;;3.88
63158;BMP280;49381;49.338;8.794;2023-02-11T08:59:51;102270.47;;;4.00
63158;BMP280;49381;49.338;8.794;2023-02-11T09:01:52;102269.09;;;4.04
63158;BMP280;49381;49.338;8.794;2023-02-11T09:03:53;102258.00;;;4.14
63158;BMP280;49381;49.338;8.794;2023-02-11T09:05:53;102258.44;;;4.21
63158;BMP280;49381;49.338;8.794;2023-02-11T09:07:54;102258.22;;;4.31
63158;BMP280;49381;49.338;8.794;2023-02-11T09:09:54;102255.78;;;4.32
63158;BMP280;49381;49.338;8.794;2023-02-11T09:11:57;102255.97;;;4.35
63158;BMP280;49381;49.338;8.794;2023-02-11T09:13:58;102264.66;;;4.40
63158;BMP280;49381;49.338;8.794;2023-02-11T09:15:59;102267.69;;;4.22
63158;BMP280;49381;49.338;8.794;2023-02-11T09:18:02;102262.75;;;4.36
63158;BMP280;49381;49.338;8.794;2023-02-11T09:20:03;102255.69;;;4.44
63158;BMP280;49381;49.338;8.794;2023-02-11T09:22:03;102253.44;;;4.48
63158;BMP280;49381;49.338;8.794;2023-02-11T09:24:04;102266.94;;;4.50
63158;BMP280;49381;49.338;8.794;2023-02-11T09:26:05;102263.50;;;4.48
63158;BMP280;49381;49.338;8.794;2023-02-11T09:28:06;102263.34;;;4.59
63158;BMP280;49381;49.338;8.794;2023-02-11T09:30:07;102260.13;;;4.62
63158;BMP280;49381;49.338;8.794;2023-02-11T09:32:08;102272.09;;;4.66
63158;BMP280;49381;49.338;8.794;2023-02-11T09:34:11;102277.38;;;4.70
63158;BMP280;49381;49.338;8.794;2023-02-11T09:36:11;102278.81;;;4.79
63158;BMP280;49381;49.338;8.794;2023-02-11T09:38:17;102279.66;;;4.80
63158;BMP280;49381;49.338;8.794;2023-02-11T09:40:18;102276.38;;;4.81
63158;BMP280;49381;49.338;8.794;2023-02-11T09:42:35;102279.44;;;4.90
63158;BMP280;49381;49.338;8.794;2023-02-11T09:44:37;102283.50;;;4.88
63158;BMP280;49381;49.338;8.794;2023-02-11T09:46:40;102277.84;;;4.92
63158;BMP280;49381;49.338;8.794;2023-02-11T09:48:43;102274.56;;;4.78
63158;BMP280;49381;49.338;8.794;2023-02-11T09:50:51;102274.47;;;4.91
63158;BMP280;49381;49.338;8.794;2023-02-11T09:52:57;102258.88;;;4.97
63158;BMP280;49381;49.338;8.794;2023-02-11T09:55:08;102259.94;;;5.00
63158;BMP280;49381;49.338;8.794;2023-02-11T09:57:13;102252.31;;;5.13
63158;BMP280;49381;49.338;8.794;2023-02-11T09:59:16;102248.84;;;5.25
63158;BMP280;49381;49.338;8.794;2023-02-11T10:01:25;102255.44;;;5.23
63158;BMP280;49381;49.338;8.794;2023-02-11T10:03:48;102241.09;;;5.36
63158;BMP280;49381;49.338;8.794;2023-02-11T10:06:08;102234.63;;;5.40
63158;BMP280;49381;49.338;8.794;2023-02-11T10:08:17;102253.16;;;5.56
63158;BMP280;49381;49.338;8.794;2023-02-11T10:10:31;102241.69;;;5.47
63158;BMP280;49381;49.338;8.794;2023-02-11T10:12:44;102242.56;;;5.61
63158;BMP280;49381;49.338;8.794;2023-02-11T10:15:13;102241.88;;;5.64
63158;BMP280;49381;49.338;8.794;2023-02-11T10:17:24;102246.03;;;5.77
63158;BMP280;49381;49.338;8.794;2023-02-11T10:19:45;102237.28;;;5.71
63158;BMP280;49381;49.338;8.794;2023-02-11T10:22:03;102248.09;;;5.84
63158;BMP280;49381;49.338;8.794;2023-02-11T10:24:09;102241.94;;;5.79
63158;BMP280;49381;49.338;8.794;2023-02-11T10:26:13;102230.13;;;5.93
63158;BMP280;49381;49.338;8.794;2023-02-11T10:28:17;102233.31;;;5.90
63158;BMP280;49381;49.338;8.794;2023-02-11T10:30:25;102224.81;;;5.88
63158;BMP280;49381;49.338;8.794;2023-02-11T10:32:34;102226.50;;;6.03
63158;BMP280;49381;49.338;8.794;2023-02-11T10:34:40;102223.38;;;6.23
63158;BMP280;49381;49.338;8.794;2023-02-11T10:36:53;102229.03;;;6.19
63158;BMP280;49381;49.338;8.794;2023-02-11T10:38:57;102230.75;;;6.20
63158;BMP280;49381;49.338;8.794;2023-02-11T10:41:02;102224.97;;;6.37
63158;BMP280;49381;49.338;8.794;2023-02-11T10:43:06;102230.63;;;6.49
63158;BMP280;49381;49.338;8.794;2023-02-11T10:45:14;102230.38;;;6.44
63158;BMP280;49381;49.338;8.794;2023-02-11T10:47:18;102226.63;;;6.52
63158;BMP280;49381;49.338;8.794;2023-02-11T10:49:35;102225.34;;;6.60
63158;BMP280;49381;49.338;8.794;2023-02-11T10:51:39;102221.03;;;6.57
63158;BMP280;49381;49.338;8.794;2023-02-11T10:53:39;102219.28;;;6.72
63158;BMP280;49381;49.338;8.794;2023-02-11T10:55:49;102223.84;;;6.63
63158;BMP280;49381;49.338;8.794;2023-02-11T10:57:56;102221.59;;;6.85
63158;BMP280;49381;49.338;8.794;2023-02-11T11:00:00;102224.03;;;6.99
63158;BMP280;49381;49.338;8.794;2023-02-11T11:02:04;102214.78;;;7.00
63158;BMP280;49381;49.338;8.794;2023-02-11T11:06:29;102215.72;;;7.17
63158;BMP280;49381;49.338;8.794;2023-02-11T11:08:42;102214.91;;;7.18
63158;BMP280;49381;49.338;8.794;2023-02-11T11:10:45;102223.78;;;6.95
63158;BMP280;49381;49.338;8.794;2023-02-11T11:12:48;102218.22;;;7.17
63158;BMP280;49381;49.338;8.794;2023-02-11T11:14:53;102212.91;;;7.28
63158;BMP280;49381;49.338;8.794;2023-02-11T11:16:57;102214.84;;;7.34
63158;BMP280;49381;49.338;8.794;2023-02-11T11:19:27;102215.25;;;7.26
63158;BMP280;49381;49.338;8.794;2023-02-11T11:21:32;102227.34;;;7.31
63158;BMP280;49381;49.338;8.794;2023-02-11T11:23:37;102228.88;;;7.29
63158;BMP280;49381;49.338;8.794;2023-02-11T11:25:40;102218.97;;;7.32
63158;BMP280;49381;49.338;8.794;2023-02-11T11:27:48;102228.53;;;7.39
63158;BMP280;49381;49.338;8.794;2023-02-11T11:29:52;102225.66;;;7.49
63158;BMP280;49381;49.338;8.794;2023-02-11T11:31:54;102221.69;;;7.53
63158;BMP280;49381;49.338;8.794;2023-02-11T11:33:58;102220.19;;;7.57
63158;BMP280;49381;49.338;8.794;2023-02-11T11:36:04;102228.53;;;7.39
63158;BMP280;49381;49.338;8.794;2023-02-11T11:38:05;102228.19;;;7.49
63158;BMP280;49381;49.338;8.794;2023-02-11T11:40:08;102233.88;;;7.45
63158;BMP280;49381;49.338;8.794;2023-02-11T11:42:25;102233.16;;;7.47
63158;BMP280;49381;49.338;8.794;2023-02-11T11:44:30;102227.66;;;7.55
63158;BMP280;49381;49.338;8.794;2023-02-11T11:46:34;102231.09;;;7.56
63158;BMP280;49381;49.338;8.794;2023-02-11T11:48:37;102226.91;;;7.56
63158;BMP280;49381;49.338;8.794;2023-02-11T11:50:41;102226.53;;;7.49
63158;BMP280;49381;49.338;8.794;2023-02-11T11:52:45;102230.78;;;7.50
63158;BMP280;49381;49.338;8.794;2023-02-11T11:54:54;102229.56;;;7.59
63158;BMP280;49381;49.338;8.794;2023-02-11T11:56:58;102226.53;;;7.66
63158;BMP280;49381;49.338;8.794;2023-02-11T11:59:08;102222.25;;;7.65
63158;BMP280;49381;49.338;8.794;2023-02-11T12:01:17;102228.53;;;7.73
63158;BMP280;49381;49.338;8.794;2023-02-11T12:04:09;102224.63;;;7.79
63158;BMP280;49381;49.338;8.794;2023-02-11T12:06:30;102218.06;;;7.83